createdAt,value
2023-02-28T00:03:50.616Z,73.84
2023-02-28T00:08:56.315Z,73.84
2023-02-28T00:14:01.768Z,74.16
2023-02-28T00:19:07.245Z,73.96
2023-02-28T00:24:12.660Z,74.08
2023-02-28T00:29:18.102Z,73.96
2023-02-28T00:34:23.506Z,74.12
2023-02-28T00:39:28.888Z,74.08
2023-02-28T00:44:34.714Z,74.18
2023-02-28T00:49:40.303Z,74.21
2023-02-28T00:54:47.368Z,74.52
2023-02-28T00:59:55.407Z,74.39
2023-02-28T01:05:01.088Z,73.87
2023-02-28T01:10:09.371Z,73.63
2023-02-28T01:15:14.903Z,73.52
2023-02-28T01:20:20.423Z,73.09
2023-02-28T01:25:25.987Z,72.49
2023-02-28T01:30:32.259Z,73.01
2023-02-28T01:35:38.484Z,73.23
2023-02-28T01:40:43.980Z,73.40
2023-02-28T01:45:49.680Z,73.43
2023-02-28T01:50:57.242Z,73.70
2023-02-28T01:56:04.341Z,73.58
2023-02-28T02:01:09.899Z,73.50
2023-02-28T02:06:15.342Z,73.65
2023-02-28T02:11:22.846Z,73.75
2023-02-28T02:16:55.349Z,73.73
2023-02-28T02:22:16.386Z,73.79
2023-02-28T02:27:52.049Z,73.98
2023-02-28T02:33:32.779Z,74.09
2023-02-28T02:38:47.188Z,74.09
2023-02-28T02:43:59.446Z,73.97
2023-02-28T02:49:08.112Z,74.11
2023-02-28T02:54:29.852Z,74.06
2023-02-28T02:59:38.318Z,74.24
2023-02-28T03:04:49.716Z,74.03
2023-02-28T03:09:57.528Z,73.94
2023-02-28T03:15:09.535Z,74.41
2023-02-28T03:20:33.407Z,74.46
2023-02-28T03:25:58.532Z,74.62
2023-02-28T03:31:08.307Z,74.84
2023-02-28T03:36:19.407Z,74.68
2023-02-28T03:41:28.607Z,74.88
2023-02-28T03:46:37.453Z,74.42
2023-02-28T03:51:46.180Z,74.75
2023-02-28T03:56:54.726Z,74.30
2023-02-28T04:02:00.798Z,74.65
2023-02-28T04:07:10.678Z,74.49
2023-02-28T04:12:16.138Z,74.34
2023-02-28T04:17:21.633Z,75.05
2023-02-28T04:22:30.256Z,74.79
2023-02-28T04:27:36.078Z,74.97
2023-02-28T04:32:41.624Z,74.62
2023-02-28T04:37:47.137Z,75.50
2023-02-28T04:42:52.634Z,75.49
2023-02-28T04:47:58.241Z,74.57
2023-02-28T04:53:03.690Z,75.00
2023-02-28T04:58:10.083Z,75.51
2023-02-28T05:03:15.861Z,75.45
2023-02-28T05:08:21.337Z,75.28
2023-02-28T05:13:27.909Z,74.70
2023-02-28T05:18:33.587Z,74.82
2023-02-28T05:23:39.209Z,75.30
2023-02-28T05:28:44.793Z,74.82
2023-02-28T05:33:50.589Z,75.04
2023-02-28T05:38:56.055Z,74.98
2023-02-28T05:44:02.391Z,74.29
2023-02-28T05:49:08.107Z,74.83
2023-02-28T05:54:14.041Z,74.63
2023-02-28T05:59:24.532Z,73.86
2023-02-28T06:04:32.137Z,74.14
2023-02-28T06:09:37.158Z,74.19
2023-02-28T06:14:42.608Z,74.70
2023-02-28T06:19:49.138Z,74.69
2023-02-28T06:24:55.837Z,74.61
2023-02-28T06:30:01.370Z,74.41
2023-02-28T06:35:07.665Z,74.50
2023-02-28T06:40:14.124Z,74.45
2023-02-28T06:45:20.278Z,74.25
2023-02-28T06:50:25.878Z,74.26
2023-02-28T06:55:31.436Z,74.41
2023-02-28T07:00:36.896Z,74.05
2023-02-28T07:05:42.589Z,74.13
2023-02-28T07:10:48.074Z,74.44
2023-02-28T07:16:17.558Z,74.36
2023-02-28T07:21:24.184Z,74.40
2023-02-28T07:26:29.768Z,74.05
2023-02-28T07:31:35.405Z,73.90
2023-02-28T07:36:41.126Z,74.29
2023-02-28T07:41:46.577Z,73.75
2023-02-28T07:46:52.078Z,73.23
2023-02-28T07:51:57.734Z,73.70
2023-02-28T07:57:04.066Z,73.60
2023-02-28T08:02:11.264Z,72.19
2023-02-28T08:07:17.665Z,72.36
2023-02-28T08:12:23.407Z,71.79
2023-02-28T08:17:28.937Z,72.04
2023-02-28T08:22:34.490Z,71.75
2023-02-28T08:27:39.969Z,71.28
2023-02-28T08:32:45.679Z,70.23
2023-02-28T08:37:51.729Z,70.79
2023-02-28T08:42:57.215Z,70.73
2023-02-28T08:48:02.956Z,70.32
2023-02-28T08:53:08.509Z,70.08
2023-02-28T08:58:13.986Z,69.33
2023-02-28T09:03:20.119Z,68.52
2023-02-28T09:08:28.936Z,68.01
2023-02-28T09:13:35.381Z,67.43
2023-02-28T09:18:41.711Z,67.43
2023-02-28T09:23:50.414Z,65.09
2023-02-28T09:28:56.868Z,65.09
2023-02-28T09:34:02.479Z,65.41
2023-02-28T09:39:08.403Z,63.50
2023-02-28T09:44:16.937Z,61.37
2023-02-28T09:49:25.574Z,62.28
2023-02-28T09:54:47.293Z,61.81
2023-02-28T10:00:11.466Z,61.31
2023-02-28T10:05:26.464Z,61.02
2023-02-28T10:10:44.184Z,61.33
2023-02-28T10:15:52.761Z,59.23
2023-02-28T10:20:59.279Z,59.41
2023-02-28T10:26:13.811Z,58.87
2023-02-28T10:31:22.258Z,58.86
2023-02-28T10:36:29.965Z,57.15
2023-02-28T10:41:37.585Z,58.73
2023-02-28T10:46:44.742Z,58.04
2023-02-28T10:51:53.137Z,57.30
2023-02-28T10:57:23.061Z,55.68
2023-02-28T11:07:53.008Z,55.44
2023-02-28T11:12:53.335Z,54.52
2023-02-28T11:17:59.157Z,54.91
2023-02-28T11:23:07.112Z,54.10
2023-02-28T11:28:30.769Z,53.77
2023-02-28T11:33:57.462Z,53.42
2023-02-28T11:39:05.786Z,51.85
2023-02-28T11:44:29.539Z,53.37
2023-02-28T11:49:42.172Z,53.15
2023-02-28T11:55:08.856Z,52.34
2023-02-28T12:00:36.289Z,53.39
2023-02-28T12:05:47.624Z,51.61
2023-02-28T12:11:14.165Z,51.00
2023-02-28T12:16:27.048Z,49.41
2023-02-28T12:21:50.914Z,49.63
2023-02-28T12:26:59.037Z,49.61
2023-02-28T12:32:10.984Z,50.24
2023-02-28T12:37:19.662Z,48.51
2023-02-28T12:42:31.568Z,48.89
2023-02-28T12:47:38.694Z,49.23
2023-02-28T12:53:05.232Z,49.27
2023-02-28T12:58:30.198Z,48.52
2023-02-28T13:03:56.929Z,48.20
2023-02-28T13:09:19.839Z,46.91
2023-02-28T13:14:34.194Z,48.54
2023-02-28T13:19:48.778Z,47.30
2023-02-28T13:24:57.024Z,48.02
2023-02-28T13:30:03.798Z,46.30
2023-02-28T13:35:12.372Z,46.81
2023-02-28T13:40:34.558Z,46.02
2023-02-28T13:45:40.891Z,46.42
2023-02-28T13:50:47.438Z,44.81
2023-02-28T13:56:01.524Z,44.89
2023-02-28T14:01:31.802Z,46.52
2023-02-28T14:06:40.811Z,44.34
2023-02-28T14:11:47.823Z,43.60
2023-02-28T14:16:53.706Z,43.23
2023-02-28T14:22:02.300Z,43.77
2023-02-28T14:27:19.789Z,41.43
2023-02-28T14:32:31.303Z,43.37
2023-02-28T14:37:40.321Z,42.28
2023-02-28T14:42:51.785Z,42.22
2023-02-28T14:48:00.379Z,42.65
2023-02-28T14:53:08.774Z,41.68
2023-02-28T14:58:28.791Z,41.52
2023-02-28T15:03:37.094Z,42.07
2023-02-28T15:08:42.752Z,42.05
2023-02-28T15:13:55.781Z,41.81
2023-02-28T15:19:09.858Z,42.25
2023-02-28T15:24:18.684Z,41.80
2023-02-28T15:29:27.016Z,41.85
2023-02-28T15:34:42.151Z,42.55
2023-02-28T15:39:45.694Z,42.75
2023-02-28T15:44:52.309Z,42.85
2023-02-28T15:50:06.645Z,43.13
2023-02-28T15:55:15.130Z,43.32
2023-02-28T16:00:27.028Z,43.85
2023-02-28T16:05:33.659Z,44.42
2023-02-28T16:10:39.375Z,44.47
2023-02-28T16:15:46.088Z,45.40
2023-02-28T16:20:51.560Z,44.97
2023-02-28T16:25:57.092Z,44.95
2023-02-28T16:31:04.319Z,45.07
2023-02-28T16:36:15.889Z,45.15
2023-02-28T16:41:24.332Z,45.46
2023-02-28T16:46:34.180Z,45.40
2023-02-28T16:51:39.711Z,46.16
2023-02-28T16:56:48.476Z,47.00
2023-02-28T17:01:54.909Z,47.38
2023-02-28T17:07:01.222Z,48.39
2023-02-28T17:12:07.500Z,49.13
2023-02-28T17:17:18.971Z,49.85
2023-02-28T17:22:24.492Z,50.55
2023-02-28T17:27:30.058Z,51.30
2023-02-28T17:32:35.592Z,51.70
2023-02-28T17:37:41.362Z,52.17
2023-02-28T17:42:47.178Z,52.48
2023-02-28T17:47:53.034Z,52.51
2023-02-28T17:52:59.590Z,52.75
2023-02-28T17:58:06.138Z,53.45
2023-02-28T18:03:13.301Z,54.49
2023-02-28T18:08:19.314Z,54.91
2023-02-28T18:13:24.762Z,55.40
2023-02-28T18:18:30.229Z,55.62
2023-02-28T18:23:36.196Z,56.60
2023-02-28T18:28:43.620Z,57.05
2023-02-28T18:33:52.504Z,57.59
2023-02-28T18:38:59.091Z,58.03
2023-02-28T18:44:13.795Z,58.61
2023-02-28T18:49:12.407Z,58.87
2023-02-28T18:54:18.583Z,59.20
2023-02-28T18:59:24.375Z,60.21
2023-02-28T19:04:29.885Z,60.49
2023-02-28T19:09:35.410Z,60.65
2023-02-28T19:14:40.890Z,61.03
2023-02-28T19:19:46.374Z,61.48
2023-02-28T19:24:52.325Z,61.91
2023-02-28T19:29:59.444Z,62.50
2023-02-28T19:35:05.423Z,62.80
2023-02-28T19:40:13.924Z,62.94
2023-02-28T19:45:19.453Z,63.17
2023-02-28T19:50:24.972Z,63.56
2023-02-28T19:55:31.882Z,63.71
2023-02-28T20:00:37.443Z,63.95
2023-02-28T20:05:43.147Z,64.23
2023-02-28T20:10:48.704Z,64.58
2023-02-28T20:15:55.014Z,64.74
2023-02-28T20:21:02.054Z,64.81
2023-02-28T20:26:08.170Z,65.13
2023-02-28T20:31:16.596Z,65.32
2023-02-28T20:36:23.588Z,65.42
2023-02-28T20:41:29.533Z,65.91
2023-02-28T20:46:35.801Z,65.90
2023-02-28T20:51:42.466Z,66.18
2023-02-28T20:56:48.670Z,66.34
2023-02-28T21:01:56.250Z,66.31
2023-02-28T21:07:01.705Z,66.54
2023-02-28T21:12:07.722Z,66.85
2023-02-28T21:17:13.551Z,66.85
2023-02-28T21:22:19.000Z,67.09
2023-02-28T21:27:25.591Z,67.06
2023-02-28T21:32:33.382Z,67.20
2023-02-28T21:37:39.814Z,67.60
2023-02-28T21:42:45.338Z,67.92
2023-02-28T21:47:50.976Z,67.80
2023-02-28T21:52:56.435Z,68.18
2023-02-28T21:58:01.844Z,68.04
2023-02-28T22:03:07.447Z,68.53
2023-02-28T22:08:13.146Z,68.53
2023-02-28T22:13:19.820Z,68.83
2023-02-28T22:18:25.365Z,68.93
2023-02-28T22:23:33.626Z,69.43
2023-02-28T22:28:39.634Z,69.50
2023-02-28T22:33:46.032Z,69.58
2023-02-28T22:38:52.900Z,70.16
2023-02-28T22:44:01.230Z,69.90
2023-02-28T22:49:07.476Z,69.96
2023-02-28T22:54:13.127Z,70.48
2023-02-28T22:59:18.522Z,70.46
2023-02-28T23:04:25.867Z,70.74
2023-02-28T23:09:31.388Z,70.34
2023-02-28T23:14:36.754Z,71.12
2023-02-28T23:19:42.280Z,70.49
2023-02-28T23:24:48.030Z,70.72
2023-02-28T23:29:54.029Z,70.85
2023-02-28T23:35:00.882Z,71.00
2023-02-28T23:40:08.885Z,70.67
2023-02-28T23:45:14.293Z,70.87
2023-02-28T23:50:19.809Z,70.81
2023-02-28T23:55:25.272Z,71.02
